sensor_id;sensor_type;location;lat;lon;timestamp;pressure;altitude;pressure_sealevel;temperature;humidity
69971;BME280;57301;50.328;8.542;2023-02-12T00:01:14;100550.59;;;6.11;89.44
69971;BME280;57301;50.328;8.542;2023-02-12T00:03:41;100537.13;;;6.15;89.16
69971;BME280;57301;50.328;8.542;2023-02-12T00:06:08;100539.78;;;6.15;88.98
69971;BME280;57301;50.328;8.542;2023-02-12T00:08:36;100543.28;;;6.16;88.97
69971;BME280;57301;50.328;8.542;2023-02-12T00:11:17;100539.13;;;6.10;89.23
69971;BME280;57301;50.328;8.542;2023-02-12T00:13:45;100546.63;;;6.02;88.72
69971;BME280;57301;50.328;8.542;2023-02-12T00:16:13;100536.66;;;5.70;90.05
69971;BME280;57301;50.328;8.542;2023-02-12T00:18:41;100535.53;;;5.56;91.25
69971;BME280;57301;50.328;8.542;2023-02-12T00:21:07;100549.88;;;5.70;90.82
69971;BME280;57301;50.328;8.542;2023-02-12T00:23:34;100549.38;;;5.80;90.02
69971;BME280;57301;50.328;8.542;2023-02-12T00:26:12;100553.25;;;5.54;91.66
69971;BME280;57301;50.328;8.542;2023-02-12T00:28:39;100557.91;;;5.30;93.09
69971;BME280;57301;50.328;8.542;2023-02-12T00:31:08;100545.16;;;5.20;93.92
69971;BME280;57301;50.328;8.542;2023-02-12T00:33:35;100539.88;;;5.38;95.21
69971;BME280;57301;50.328;8.542;2023-02-12T00:36:02;100536.00;;;5.64;93.12
69971;BME280;57301;50.328;8.542;2023-02-12T00:38:29;100532.66;;;5.80;91.49
69971;BME280;57301;50.328;8.542;2023-02-12T00:40:56;100531.72;;;5.81;91.18
69971;BME280;57301;50.328;8.542;2023-02-12T00:43:22;100537.38;;;5.92;91.18
69971;BME280;57301;50.328;8.542;2023-02-12T00:45:49;100537.00;;;6.00;90.63
69971;BME280;57301;50.328;8.542;2023-02-12T00:48:16;100537.00;;;6.00;90.77
69971;BME280;57301;50.328;8.542;2023-02-12T00:50:44;100535.72;;;6.08;89.56
69971;BME280;57301;50.328;8.542;2023-02-12T00:53:11;100532.81;;;6.13;89.60
69971;BME280;57301;50.328;8.542;2023-02-12T00:55:38;100531.03;;;6.13;89.82
69971;BME280;57301;50.328;8.542;2023-02-12T00:58:04;100532.50;;;6.02;90.06
69971;BME280;57301;50.328;8.542;2023-02-12T01:00:31;100524.31;;;6.06;90.89
69971;BME280;57301;50.328;8.542;2023-02-12T01:02:57;100537.44;;;6.09;90.52
69971;BME280;57301;50.328;8.542;2023-02-12T01:05:24;100533.47;;;6.18;89.98
69971;BME280;57301;50.328;8.542;2023-02-12T01:07:52;100535.88;;;6.23;88.65
69971;BME280;57301;50.328;8.542;2023-02-12T01:10:19;100534.16;;;6.04;89.26
69971;BME280;57301;50.328;8.542;2023-02-12T01:12:49;100527.53;;;5.96;89.37
69971;BME280;57301;50.328;8.542;2023-02-12T01:15:16;100534.16;;;6.04;89.53
69971;BME280;57301;50.328;8.542;2023-02-12T01:17:43;100542.00;;;6.06;89.50
69971;BME280;57301;50.328;8.542;2023-02-12T01:20:13;100538.28;;;6.10;88.61
69971;BME280;57301;50.328;8.542;2023-02-12T01:22:40;100538.38;;;6.08;87.99
69971;BME280;57301;50.328;8.542;2023-02-12T01:25:07;100532.06;;;6.11;87.98
69971;BME280;57301;50.328;8.542;2023-02-12T01:27:33;100538.06;;;6.14;88.04
69971;BME280;57301;50.328;8.542;2023-02-12T01:30:00;100538.28;;;6.10;89.49
69971;BME280;57301;50.328;8.542;2023-02-12T01:32:27;100533.50;;;5.99;90.76
69971;BME280;57301;50.328;8.542;2023-02-12T01:34:53;100540.75;;;5.96;91.20
69971;BME280;57301;50.328;8.542;2023-02-12T01:37:19;100525.03;;;6.10;90.78
69971;BME280;57301;50.328;8.542;2023-02-12T01:39:46;100530.97;;;6.15;91.22
69971;BME280;57301;50.328;8.542;2023-02-12T01:42:14;100524.41;;;6.05;91.83
69971;BME280;57301;50.328;8.542;2023-02-12T01:45:17;100526.84;;;6.09;91.34
69971;BME280;57301;50.328;8.542;2023-02-12T01:47:31;100531.66;;;6.18;91.12
69971;BME280;57301;50.328;8.542;2023-02-12T01:49:58;100528.72;;;6.25;90.99
69971;BME280;57301;50.328;8.542;2023-02-12T01:52:29;100533.47;;;6.18;91.22
69971;BME280;57301;50.328;8.542;2023-02-12T01:54:59;100532.94;;;6.29;91.13
69971;BME280;57301;50.328;8.542;2023-02-12T01:57:30;100529.22;;;6.33;90.37
69971;BME280;57301;50.328;8.542;2023-02-12T01:59:59;100533.94;;;6.43;89.54
69971;BME280;57301;50.328;8.542;2023-02-12T02:02:27;100529.34;;;6.30;88.72
69971;BME280;57301;50.328;8.542;2023-02-12T02:04:57;100526.06;;;6.25;89.76
69971;BME280;57301;50.328;8.542;2023-02-12T02:07:25;100531.63;;;6.20;89.00
69971;BME280;57301;50.328;8.542;2023-02-12T02:09:52;100535.97;;;6.21;88.70
69971;BME280;57301;50.328;8.542;2023-02-12T02:12:18;100536.91;;;6.20;89.46
69971;BME280;57301;50.328;8.542;2023-02-12T02:15:04;100526.69;;;6.30;88.93
69971;BME280;57301;50.328;8.542;2023-02-12T02:26:21;100522.78;;;6.37;88.65
69971;BME280;57301;50.328;8.542;2023-02-12T02:32:25;100519.28;;;6.19;87.06
69971;BME280;57301;50.328;8.542;2023-02-12T02:35:03;100504.59;;;5.95;88.67
69971;BME280;57301;50.328;8.542;2023-02-12T02:37:39;100504.81;;;5.90;89.11
69971;BME280;57301;50.328;8.542;2023-02-12T02:40:13;100517.13;;;5.91;89.44
69971;BME280;57301;50.328;8.542;2023-02-12T02:42:46;100503.75;;;5.94;89.63
69971;BME280;57301;50.328;8.542;2023-02-12T02:45:25;100510.31;;;6.04;88.94
69971;BME280;57301;50.328;8.542;2023-02-12T02:48:03;100516.25;;;6.09;88.16
69971;BME280;57301;50.328;8.542;2023-02-12T02:50:34;100520.56;;;5.93;89.51
69971;BME280;57301;50.328;8.542;2023-02-12T02:53:09;100512.88;;;5.87;89.82
69971;BME280;57301;50.328;8.542;2023-02-12T02:55:42;100516.59;;;5.83;89.86
69971;BME280;57301;50.328;8.542;2023-02-12T02:58:15;100512.41;;;5.79;90.12
69971;BME280;57301;50.328;8.542;2023-02-12T03:01:06;100512.97;;;5.85;90.83
69971;BME280;57301;50.328;8.542;2023-02-12T03:03:58;100509.13;;;5.92;90.69
69971;BME280;57301;50.328;8.542;2023-02-12T03:06:32;100515.34;;;5.91;89.74
69971;BME280;57301;50.328;8.542;2023-02-12T03:09:04;100511.84;;;5.91;89.81
69971;BME280;57301;50.328;8.542;2023-02-12T03:11:34;100516.38;;;5.87;89.95
69971;BME280;57301;50.328;8.542;2023-02-12T03:16:50;100504.00;;;5.88;90.97
69971;BME280;57301;50.328;8.542;2023-02-12T03:19:23;100511.56;;;5.59;93.30
69971;BME280;57301;50.328;8.542;2023-02-12T03:25:06;100517.53;;;5.82;92.71
69971;BME280;57301;50.328;8.542;2023-02-12T03:27:41;100515.25;;;5.93;91.98
69971;BME280;57301;50.328;8.542;2023-02-12T03:30:09;100508.72;;;6.00;91.16
69971;BME280;57301;50.328;8.542;2023-02-12T03:35:20;100516.31;;;6.08;88.34
69971;BME280;57301;50.328;8.542;2023-02-12T03:38:01;100523.69;;;6.01;88.17
69971;BME280;57301;50.328;8.542;2023-02-12T03:40:39;100530.22;;;5.94;88.11
69971;BME280;57301;50.328;8.542;2023-02-12T03:43:22;100531.50;;;5.85;89.25
69971;BME280;57301;50.328;8.542;2023-02-12T03:46:05;100532.44;;;5.84;89.47
69971;BME280;57301;50.328;8.542;2023-02-12T03:48:40;100528.63;;;5.90;89.32
69971;BME280;57301;50.328;8.542;2023-02-12T03:53:58;100539.09;;;5.74;90.07
69971;BME280;57301;50.328;8.542;2023-02-12T03:56:32;100531.06;;;5.76;90.01
69971;BME280;57301;50.328;8.542;2023-02-12T03:59:00;100539.81;;;5.78;90.44
69971;BME280;57301;50.328;8.542;2023-02-12T04:01:27;100541.44;;;5.80;90.18
69971;BME280;57301;50.328;8.542;2023-02-12T04:03:54;100536.16;;;5.80;89.20
69971;BME280;57301;50.328;8.542;2023-02-12T04:06:24;100534.53;;;5.78;89.00
69971;BME280;57301;50.328;8.542;2023-02-12T04:08:52;100539.72;;;5.79;89.30
69971;BME280;57301;50.328;8.542;2023-02-12T04:11:46;100555.31;;;5.85;88.72
69971;BME280;57301;50.328;8.542;2023-02-12T04:14:26;100551.09;;;5.81;88.53
69971;BME280;57301;50.328;8.542;2023-02-12T04:17:20;100551.31;;;5.77;88.60
69971;BME280;57301;50.328;8.542;2023-02-12T04:20:02;100545.31;;;5.73;89.30
69971;BME280;57301;50.328;8.542;2023-02-12T04:28:07;100553.47;;;5.69;88.04
69971;BME280;57301;50.328;8.542;2023-02-12T04:33:43;100559.91;;;5.63;88.83
69971;BME280;57301;50.328;8.542;2023-02-12T04:36:16;100556.28;;;5.65;89.28
69971;BME280;57301;50.328;8.542;2023-02-12T04:38:51;100557.97;;;5.66;88.36
69971;BME280;57301;50.328;8.542;2023-02-12T04:41:18;100558.13;;;5.63;89.04
69971;BME280;57301;50.328;8.542;2023-02-12T04:43:45;100556.56;;;5.59;89.30
69971;BME280;57301;50.328;8.542;2023-02-12T04:46:12;100559.81;;;5.64;89.01
69971;BME280;57301;50.328;8.542;2023-02-12T04:48:52;100558.06;;;5.65;89.40
69971;BME280;57301;50.328;8.542;2023-02-12T04:51:19;100552.78;;;5.65;89.11
69971;BME280;57301;50.328;8.542;2023-02-12T04:53:46;100554.69;;;5.61;89.27
69971;BME280;57301;50.328;8.542;2023-02-12T04:56:13;100560.75;;;5.63;90.08
69971;BME280;57301;50.328;8.542;2023-02-12T04:58:40;100567.47;;;5.71;89.86
69971;BME280;57301;50.328;8.542;2023-02-12T05:01:08;100563.63;;;5.78;89.45
69971;BME280;57301;50.328;8.542;2023-02-12T05:03:35;100566.28;;;5.78;88.58
69971;BME280;57301;50.328;8.542;2023-02-12T05:06:04;100554.03;;;5.75;88.93
69971;BME280;57301;50.328;8.542;2023-02-12T05:08:30;100549.59;;;5.76;88.08
69971;BME280;57301;50.328;8.542;2023-02-12T05:11:03;100552.25;;;5.76;88.07
69971;BME280;57301;50.328;8.542;2023-02-12T05:13:29;100552.25;;;5.57;88.67
69971;BME280;57301;50.328;8.542;2023-02-12T05:15:56;100553.09;;;5.57;88.62
69971;BME280;57301;50.328;8.542;2023-02-12T05:18:23;100557.69;;;5.54;88.75
69971;BME280;57301;50.328;8.542;2023-02-12T05:21:01;100557.47;;;5.58;89.65
69971;BME280;57301;50.328;8.542;2023-02-12T05:23:30;100560.09;;;5.58;89.43
69971;BME280;57301;50.328;8.542;2023-02-12T05:25:58;100563.03;;;5.52;89.07
69971;BME280;57301;50.328;8.542;2023-02-12T05:28:25;100550.53;;;5.56;89.36
69971;BME280;57301;50.328;8.542;2023-02-12T05:30:52;100563.56;;;5.60;90.10
69971;BME280;57301;50.328;8.542;2023-02-12T05:33:18;100565.13;;;5.64;89.84
69971;BME280;57301;50.328;8.542;2023-02-12T05:35:45;100564.25;;;5.64;89.27
69971;BME280;57301;50.328;8.542;2023-02-12T05:38:11;100569.50;;;5.65;88.98
69971;BME280;57301;50.328;8.542;2023-02-12T05:40:38;100565.47;;;5.57;88.23
69971;BME280;57301;50.328;8.542;2023-02-12T05:43:05;100574.44;;;5.54;88.91
69971;BME280;57301;50.328;8.542;2023-02-12T05:45:32;100572.94;;;5.49;88.96
69971;BME280;57301;50.328;8.542;2023-02-12T05:47:58;100569.34;;;5.50;89.66
69971;BME280;57301;50.328;8.542;2023-02-12T05:50:25;100578.34;;;5.46;89.45
69971;BME280;57301;50.328;8.542;2023-02-12T05:52:51;100574.06;;;5.43;90.45
69971;BME280;57301;50.328;8.542;2023-02-12T05:55:18;100575.66;;;5.47;90.58
69971;BME280;57301;50.328;8.542;2023-02-12T05:57:44;100573.88;;;5.48;90.42
69971;BME280;57301;50.328;8.542;2023-02-12T06:00:12;100576.50;;;5.48;91.40
69971;BME280;57301;50.328;8.542;2023-02-12T06:02:38;100579.34;;;5.43;91.70
69971;BME280;57301;50.328;8.542;2023-02-12T06:05:05;100579.19;;;5.46;92.08
69971;BME280;57301;50.328;8.542;2023-02-12T06:07:32;100578.28;;;5.47;92.06
69971;BME280;57301;50.328;8.542;2023-02-12T06:09:58;100585.22;;;5.50;92.50
69971;BME280;57301;50.328;8.542;2023-02-12T06:12:25;100587.75;;;5.53;92.05
69971;BME280;57301;50.328;8.542;2023-02-12T06:14:51;100586.66;;;5.57;92.75
69971;BME280;57301;50.328;8.542;2023-02-12T06:17:18;100594.47;;;5.60;92.52
69971;BME280;57301;50.328;8.542;2023-02-12T06:19:44;100589.09;;;5.61;92.54
69971;BME280;57301;50.328;8.542;2023-02-12T06:22:11;100583.03;;;5.59;91.89
69971;BME280;57301;50.328;8.542;2023-02-12T06:24:37;100589.16;;;5.60;92.23
69971;BME280;57301;50.328;8.542;2023-02-12T06:27:03;100595.41;;;5.59;91.96
69971;BME280;57301;50.328;8.542;2023-02-12T06:29:30;100588.66;;;5.52;92.34
69971;BME280;57301;50.328;8.542;2023-02-12T06:31:57;100596.75;;;5.49;92.22
69971;BME280;57301;50.328;8.542;2023-02-12T06:34:23;100597.41;;;5.54;92.28
69971;BME280;57301;50.328;8.542;2023-02-12T06:36:50;100593.72;;;5.56;92.93
69971;BME280;57301;50.328;8.542;2023-02-12T06:39:16;100598.09;;;5.57;92.29
69971;BME280;57301;50.328;8.542;2023-02-12T06:41:43;100606.03;;;5.57;91.84
69971;BME280;57301;50.328;8.542;2023-02-12T06:44:11;100600.38;;;5.46;92.63
69971;BME280;57301;50.328;8.542;2023-02-12T06:46:37;100608.22;;;5.29;95.13
69971;BME280;57301;50.328;8.542;2023-02-12T06:49:04;100606.47;;;5.28;95.35
69971;BME280;57301;50.328;8.542;2023-02-12T06:51:30;100609.28;;;5.25;97.23
69971;BME280;57301;50.328;8.542;2023-02-12T06:53:57;100616.63;;;5.18;96.44
69971;BME280;57301;50.328;8.542;2023-02-12T06:56:25;100621.31;;;5.11;97.67
69971;BME280;57301;50.328;8.542;2023-02-12T06:58:55;100614.63;;;5.03;98.70
69971;BME280;57301;50.328;8.542;2023-02-12T07:01:24;100613.78;;;4.82;100.00
69971;BME280;57301;50.328;8.542;2023-02-12T07:04:00;100609.03;;;4.90;100.00
69971;BME280;57301;50.328;8.542;2023-02-12T07:06:29;100608.50;;;4.82;100.00
69971;BME280;57301;50.328;8.542;2023-02-12T07:08:56;100617.94;;;4.88;99.89
69971;BME280;57301;50.328;8.542;2023-02-12T07:11:25;100620.84;;;5.02;99.86
69971;BME280;57301;50.328;8.542;2023-02-12T07:13:52;100628.00;;;5.00;99.63
69971;BME280;57301;50.328;8.542;2023-02-12T07:16:18;100621.72;;;4.82;100.00
69971;BME280;57301;50.328;8.542;2023-02-12T07:18:45;100628.75;;;5.03;100.00
69971;BME280;57301;50.328;8.542;2023-02-12T07:21:13;100631.56;;;4.99;100.00
69971;BME280;57301;50.328;8.542;2023-02-12T07:23:41;100630.19;;;5.10;100.00
69971;BME280;57301;50.328;8.542;2023-02-12T07:26:10;100630.22;;;5.09;100.00
69971;BME280;57301;50.328;8.542;2023-02-12T07:28:37;100634.75;;;5.07;100.00
69971;BME280;57301;50.328;8.542;2023-02-12T07:31:16;100628.25;;;5.34;100.00
69971;BME280;57301;50.328;8.542;2023-02-12T07:33:44;100634.25;;;5.38;99.12
69971;BME280;57301;50.328;8.542;2023-02-12T07:36:14;100638.56;;;5.41;99.05
69971;BME280;57301;50.328;8.542;2023-02-12T07:38:41;100644.09;;;5.55;98.42
69971;BME280;57301;50.328;8.542;2023-02-12T07:41:09;100644.03;;;5.75;97.93
69971;BME280;57301;50.328;8.542;2023-02-12T07:43:41;100647.06;;;5.86;96.74
69971;BME280;57301;50.328;8.542;2023-02-12T07:46:20;100645.38;;;6.04;95.79
69971;BME280;57301;50.328;8.542;2023-02-12T07:48:47;100647.06;;;6.24;94.38
69971;BME280;57301;50.328;8.542;2023-02-12T07:51:17;100647.41;;;6.35;93.07
69971;BME280;57301;50.328;8.542;2023-02-12T07:53:47;100646.91;;;6.46;92.09
69971;BME280;57301;50.328;8.542;2023-02-12T07:56:17;100652.22;;;6.46;91.15
69971;BME280;57301;50.328;8.542;2023-02-12T07:58:45;100651.47;;;6.42;91.25
69971;BME280;57301;50.328;8.542;2023-02-12T08:01:13;100657.03;;;6.55;91.27
69971;BME280;57301;50.328;8.542;2023-02-12T08:03:41;100660.03;;;6.66;91.33
69971;BME280;57301;50.328;8.542;2023-02-12T08:06:12;100652.25;;;6.81;90.28
69971;BME280;57301;50.328;8.542;2023-02-12T08:08:39;100649.44;;;6.84;89.40
69971;BME280;57301;50.328;8.542;2023-02-12T08:11:08;100656.94;;;6.93;89.58
69971;BME280;57301;50.328;8.542;2023-02-12T08:13:35;100656.25;;;7.07;89.49
69971;BME280;57301;50.328;8.542;2023-02-12T08:16:06;100662.56;;;7.21;89.49
69971;BME280;57301;50.328;8.542;2023-02-12T08:18:33;100666.28;;;7.35;88.83
69971;BME280;57301;50.328;8.542;2023-02-12T08:21:08;100658.38;;;7.50;88.31
69971;BME280;57301;50.328;8.542;2023-02-12T08:23:35;100662.63;;;7.70;87.85
69971;BME280;57301;50.328;8.542;2023-02-12T08:26:16;100658.13;;;7.88;87.19
69971;BME280;57301;50.328;8.542;2023-02-12T08:28:48;100661.75;;;8.03;85.35
69971;BME280;57301;50.328;8.542;2023-02-12T08:31:18;100664.31;;;8.20;84.92
69971;BME280;57301;50.328;8.542;2023-02-12T08:33:46;100661.22;;;8.28;84.12
69971;BME280;57301;50.328;8.542;2023-02-12T08:36:17;100664.59;;;8.31;83.65
69971;BME280;57301;50.328;8.542;2023-02-12T08:38:45;100662.97;;;8.29;83.73
69971;BME280;57301;50.328;8.542;2023-02-12T08:41:14;100666.19;;;8.34;84.27
69971;BME280;57301;50.328;8.542;2023-02-12T08:43:42;100657.25;;;8.37;82.94
69971;BME280;57301;50.328;8.542;2023-02-12T08:46:17;100660.94;;;8.50;81.55
69971;BME280;57301;50.328;8.542;2023-02-12T08:48:44;100666.50;;;8.61;82.80
69971;BME280;57301;50.328;8.542;2023-02-12T08:51:13;100671.28;;;9.00;80.05
69971;BME280;57301;50.328;8.542;2023-02-12T08:53:42;100665.50;;;9.08;79.24
69971;BME280;57301;50.328;8.542;2023-02-12T08:56:14;100666.44;;;8.77;80.77
69971;BME280;57301;50.328;8.542;2023-02-12T08:58:48;100675.75;;;9.00;80.21
69971;BME280;57301;50.328;8.542;2023-02-12T09:01:18;100664.00;;;9.04;79.80
69971;BME280;57301;50.328;8.542;2023-02-12T09:03:50;100669.44;;;9.17;77.61
69971;BME280;57301;50.328;8.542;2023-02-12T09:06:20;100674.22;;;9.26;77.94
69971;BME280;57301;50.328;8.542;2023-02-12T09:08:49;100673.06;;;9.15;77.91
69971;BME280;57301;50.328;8.542;2023-02-12T09:11:22;100673.56;;;9.22;79.11
69971;BME280;57301;50.328;8.542;2023-02-12T09:14:00;100665.53;;;9.52;78.15
69971;BME280;57301;50.328;8.542;2023-02-12T09:16:31;100669.03;;;9.81;76.60
69971;BME280;57301;50.328;8.542;2023-02-12T09:19:03;100668.38;;;9.92;76.14
69971;BME280;57301;50.328;8.542;2023-02-12T09:21:29;100668.66;;;9.73;75.57
69971;BME280;57301;50.328;8.542;2023-02-12T09:23:56;100663.88;;;10.35;75.20
69971;BME280;57301;50.328;8.542;2023-02-12T09:26:34;100663.28;;;10.71;73.10
69971;BME280;57301;50.328;8.542;2023-02-12T09:29:02;100667.69;;;10.85;72.38
69971;BME280;57301;50.328;8.542;2023-02-12T09:31:30;100670.38;;;10.31;73.66
69971;BME280;57301;50.328;8.542;2023-02-12T09:34:01;100662.22;;;10.74;72.34
69971;BME280;57301;50.328;8.542;2023-02-12T09:36:29;100662.53;;;11.09;71.17
69971;BME280;57301;50.328;8.542;2023-02-12T09:38:56;100660.50;;;11.00;71.52
69971;BME280;57301;50.328;8.542;2023-02-12T09:41:45;100661.94;;;10.91;71.47
69971;BME280;57301;50.328;8.542;2023-02-12T09:47:29;100663.47;;;10.95;71.58
69971;BME280;57301;50.328;8.542;2023-02-12T09:50:10;100660.88;;;10.81;72.72
69971;BME280;57301;50.328;8.542;2023-02-12T09:52:39;100663.38;;;11.10;71.60
69971;BME280;57301;50.328;8.542;2023-02-12T09:55:12;100663.81;;;11.16;72.29
69971;BME280;57301;50.328;8.542;2023-02-12T09:57:40;100665.44;;;11.06;71.46
69971;BME280;57301;50.328;8.542;2023-02-12T10:00:20;100667.00;;;10.96;72.06
69971;BME280;57301;50.328;8.542;2023-02-12T10:02:51;100663.50;;;11.21;71.49
69971;BME280;57301;50.328;8.542;2023-02-12T10:05:28;100665.34;;;11.46;70.26
69971;BME280;57301;50.328;8.542;2023-02-12T10:25:52;100669.03;;;10.24;73.92
69971;BME280;57301;50.328;8.542;2023-02-12T10:28:25;100671.75;;;10.22;74.83
69971;BME280;57301;50.328;8.542;2023-02-12T10:30:56;100669.09;;;10.22;74.48
69971;BME280;57301;50.328;8.542;2023-02-12T10:33:29;100673.59;;;10.22;74.84
69971;BME280;57301;50.328;8.542;2023-02-12T10:36:14;100674.19;;;10.13;75.05
69971;BME280;57301;50.328;8.542;2023-02-12T10:38:49;100675.78;;;10.15;74.79
69971;BME280;57301;50.328;8.542;2023-02-12T10:41:17;100679.97;;;10.05;75.38
69971;BME280;57301;50.328;8.542;2023-02-12T10:43:48;100670.09;;;9.93;75.87
69971;BME280;57301;50.328;8.542;2023-02-12T10:46:16;100668.34;;;10.06;76.08
69971;BME280;57301;50.328;8.542;2023-02-12T10:48:48;100661.81;;;10.26;76.17
69971;BME280;57301;50.328;8.542;2023-02-12T10:54:32;100650.28;;;10.26;74.31
69971;BME280;57301;50.328;8.542;2023-02-12T10:57:25;100654.78;;;10.25;75.44
69971;BME280;57301;50.328;8.542;2023-02-12T10:59:55;100655.59;;;10.11;75.99
69971;BME280;57301;50.328;8.542;2023-02-12T11:02:32;100654.91;;;10.22;76.07
69971;BME280;57301;50.328;8.542;2023-02-12T11:05:21;100651.25;;;10.52;74.41
69971;BME280;57301;50.328;8.542;2023-02-12T11:07:50;100651.59;;;10.60;73.76
69971;BME280;57301;50.328;8.542;2023-02-12T11:10:38;100644.84;;;10.54;73.43
69971;BME280;57301;50.328;8.542;2023-02-12T11:13:24;100645.31;;;10.34;74.41
69971;BME280;57301;50.328;8.542;2023-02-12T11:15:54;100642.56;;;10.62;75.14
69971;BME280;57301;50.328;8.542;2023-02-12T11:18:24;100641.38;;;10.66;72.74
69971;BME280;57301;50.328;8.542;2023-02-12T11:21:07;100637.56;;;10.70;74.46
69971;BME280;57301;50.328;8.542;2023-02-12T11:23:41;100629.03;;;10.78;74.07
69971;BME280;57301;50.328;8.542;2023-02-12T11:28:58;100623.53;;;10.94;73.75
69971;BME280;57301;50.328;8.542;2023-02-12T11:31:33;100624.59;;;11.04;73.01
69971;BME280;57301;50.328;8.542;2023-02-12T11:36:34;100622.06;;;11.15;73.61
69971;BME280;57301;50.328;8.542;2023-02-12T11:39:02;100621.09;;;11.29;72.84
69971;BME280;57301;50.328;8.542;2023-02-12T11:41:36;100610.00;;;11.22;72.21
69971;BME280;57301;50.328;8.542;2023-02-12T11:44:33;100613.88;;;11.31;71.33
69971;BME280;57301;50.328;8.542;2023-02-12T11:47:06;100610.53;;;11.15;71.72
69971;BME280;57301;50.328;8.542;2023-02-12T11:50:37;100601.56;;;11.16;72.11
69971;BME280;57301;50.328;8.542;2023-02-12T11:52:48;100614.69;;;10.93;73.27
69971;BME280;57301;50.328;8.542;2023-02-12T11:55:27;100616.06;;;10.59;73.48
69971;BME280;57301;50.328;8.542;2023-02-12T11:58:14;100617.56;;;10.36;75.11
69971;BME280;57301;50.328;8.542;2023-02-12T12:03:33;100610.25;;;10.40;75.53
69971;BME280;57301;50.328;8.542;2023-02-12T12:06:24;100613.00;;;10.38;76.28
69971;BME280;57301;50.328;8.542;2023-02-12T12:09:17;100603.88;;;10.28;75.19
69971;BME280;57301;50.328;8.542;2023-02-12T12:14:35;100599.44;;;10.14;75.76
69971;BME280;57301;50.328;8.542;2023-02-12T12:17:37;100602.38;;;10.24;75.39
69971;BME280;57301;50.328;8.542;2023-02-12T12:20:29;100595.91;;;10.28;75.87
69971;BME280;57301;50.328;8.542;2023-02-12T12:23:46;100592.53;;;10.39;74.86
69971;BME280;57301;50.328;8.542;2023-02-12T12:26:22;100589.97;;;10.37;74.44
69971;BME280;57301;50.328;8.542;2023-02-12T12:29:03;100589.97;;;10.37;73.56
69971;BME280;57301;50.328;8.542;2023-02-12T12:31:33;100578.63;;;10.73;73.44
69971;BME280;57301;50.328;8.542;2023-02-12T12:34:19;100591.66;;;10.65;73.24
69971;BME280;57301;50.328;8.542;2023-02-12T12:37:08;100588.47;;;10.73;73.65
69971;BME280;57301;50.328;8.542;2023-02-12T12:40:15;100582.91;;;10.63;73.58
69971;BME280;57301;50.328;8.542;2023-02-12T12:45:25;100583.41;;;11.08;72.02
69971;BME280;57301;50.328;8.542;2023-02-12T12:53:59;100575.63;;;11.18;71.40
69971;BME280;57301;50.328;8.542;2023-02-12T12:56:52;100573.16;;;11.27;70.86
69971;BME280;57301;50.328;8.542;2023-02-12T13:02:35;100573.13;;;11.02;72.05
69971;BME280;57301;50.328;8.542;2023-02-12T13:05:22;100564.38;;;11.00;70.45
69971;BME280;57301;50.328;8.542;2023-02-12T13:09:19;100563.84;;;10.82;71.32
69971;BME280;57301;50.328;8.542;2023-02-12T13:14:12;100557.53;;;10.83;70.55
69971;BME280;57301;50.328;8.542;2023-02-12T13:16:50;100556.00;;;10.66;71.40
69971;BME280;57301;50.328;8.542;2023-02-12T13:19:31;100552.59;;;10.77;71.50
69971;BME280;57301;50.328;8.542;2023-02-12T13:22:14;100537.69;;;10.74;71.89
69971;BME280;57301;50.328;8.542;2023-02-12T13:24:48;100545.88;;;10.71;72.08
69971;BME280;57301;50.328;8.542;2023-02-12T13:27:19;100548.53;;;10.71;72.14
69971;BME280;57301;50.328;8.542;2023-02-12T13:29:57;100554.59;;;10.61;73.34
69971;BME280;57301;50.328;8.542;2023-02-12T13:32:33;100545.84;;;10.59;73.18
69971;BME280;57301;50.328;8.542;2023-02-12T13:35:04;100549.50;;;10.70;72.47
69971;BME280;57301;50.328;8.542;2023-02-12T13:37:42;100542.66;;;10.79;72.50
69971;BME280;57301;50.328;8.542;2023-02-12T13:40:17;100543.19;;;10.59;72.89
69971;BME280;57301;50.328;8.542;2023-02-12T13:43:05;100544.75;;;10.48;73.50
69971;BME280;57301;50.328;8.542;2023-02-12T13:54:04;100543.03;;;10.47;73.70
69971;BME280;57301;50.328;8.542;2023-02-12T14:04:44;100545.16;;;10.15;75.06
69971;BME280;57301;50.328;8.542;2023-02-12T14:07:12;100543.72;;;10.24;75.36
69971;BME280;57301;50.328;8.542;2023-02-12T14:09:42;100543.56;;;10.13;76.21
69971;BME280;57301;50.328;8.542;2023-02-12T14:14:47;100542.31;;;10.04;78.05
69971;BME280;57301;50.328;8.542;2023-02-12T14:19:58;100549.63;;;10.15;78.81
69971;BME280;57301;50.328;8.542;2023-02-12T14:24:58;100543.22;;;10.17;76.75
69971;BME280;57301;50.328;8.542;2023-02-12T14:27:49;100544.47;;;10.12;76.23
69971;BME280;57301;50.328;8.542;2023-02-12T14:30:33;100541.75;;;9.99;76.94
69971;BME280;57301;50.328;8.542;2023-02-12T14:35:38;100537.16;;;9.88;76.64
69971;BME280;57301;50.328;8.542;2023-02-12T14:41:25;100536.78;;;9.80;77.33
69971;BME280;57301;50.328;8.542;2023-02-12T14:46:52;100539.47;;;9.66;76.86
69971;BME280;57301;50.328;8.542;2023-02-12T14:49:25;100544.72;;;9.53;76.88
69971;BME280;57301;50.328;8.542;2023-02-12T14:54:55;100540.44;;;9.51;77.34
69971;BME280;57301;50.328;8.542;2023-02-12T14:59:58;100537.59;;;9.54;75.98
69971;BME280;57301;50.328;8.542;2023-02-12T15:02:29;100550.53;;;9.31;76.63
69971;BME280;57301;50.328;8.542;2023-02-12T15:05:04;100541.75;;;9.43;76.50
69971;BME280;57301;50.328;8.542;2023-02-12T15:07:54;100547.88;;;9.17;76.62
69971;BME280;57301;50.328;8.542;2023-02-12T15:11:11;100545.97;;;9.33;77.27
69971;BME280;57301;50.328;8.542;2023-02-12T15:18:28;100544.25;;;9.04;78.51
69971;BME280;57301;50.328;8.542;2023-02-12T15:21:10;100546.06;;;9.03;78.10
69971;BME280;57301;50.328;8.542;2023-02-12T15:23:41;100542.81;;;9.12;78.02
69971;BME280;57301;50.328;8.542;2023-02-12T15:26:21;100535.41;;;9.03;78.15
69971;BME280;57301;50.328;8.542;2023-02-12T15:28:51;100539.56;;;9.07;78.74
69971;BME280;57301;50.328;8.542;2023-02-12T15:31:23;100541.31;;;9.08;77.26